createdAt,value
2022-12-23T00:00:05.753Z,86.21
2022-12-23T00:02:42.129Z,85.98
2022-12-23T00:05:13.869Z,86.30
2022-12-23T00:07:45.431Z,86.62
2022-12-23T00:10:17.120Z,86.39
2022-12-23T00:12:48.691Z,86.85
2022-12-23T00:15:20.403Z,86.78
2022-12-23T00:17:52.020Z,85.99
2022-12-23T00:20:23.691Z,86.05
2022-12-23T00:22:55.283Z,85.83
2022-12-23T00:25:27.156Z,85.55
2022-12-23T00:27:58.722Z,84.87
2022-12-23T00:30:30.253Z,85.18
2022-12-23T00:33:01.808Z,85.39
2022-12-23T00:35:33.411Z,86.35
2022-12-23T00:38:05.000Z,86.04
2022-12-23T00:40:36.777Z,85.99
2022-12-23T00:43:08.328Z,85.50
2022-12-23T00:45:39.961Z,85.53
2022-12-23T00:48:11.592Z,85.46
2022-12-23T00:50:43.391Z,86.12
2022-12-23T00:53:15.031Z,85.90
2022-12-23T00:55:47.490Z,85.62
2022-12-23T00:58:20.799Z,86.15
2022-12-23T01:00:53.544Z,86.59
2022-12-23T01:03:25.404Z,86.79
2022-12-23T01:06:01.410Z,86.29
2022-12-23T01:08:32.987Z,86.17
2022-12-23T01:11:07.150Z,86.88
2022-12-23T01:13:39.432Z,86.66
2022-12-23T01:16:17.239Z,86.59
2022-12-23T01:18:49.404Z,87.11
2022-12-23T01:21:21.146Z,87.53
2022-12-23T01:23:52.699Z,87.05
2022-12-23T01:26:24.370Z,85.49
2022-12-23T01:28:57.818Z,86.46
2022-12-23T01:31:30.190Z,86.78
2022-12-23T01:34:01.846Z,86.29
2022-12-23T01:36:33.471Z,87.11
2022-12-23T01:39:05.064Z,86.20
2022-12-23T01:41:36.726Z,85.92
2022-12-23T01:44:45.893Z,86.43
2022-12-23T01:47:40.379Z,86.63
2022-12-23T01:50:33.035Z,86.87
2022-12-23T01:53:16.121Z,86.62
2022-12-23T01:56:15.158Z,85.24
2022-12-23T01:58:52.678Z,84.76
2022-12-23T02:01:24.970Z,86.10
2022-12-23T02:04:02.679Z,85.89
2022-12-23T02:06:37.475Z,84.73
2022-12-23T02:09:34.056Z,83.95
2022-12-23T02:13:04.197Z,83.69
2022-12-23T02:16:00.192Z,84.08
2022-12-23T02:19:06.395Z,84.65
2022-12-23T02:21:57.156Z,84.47
2022-12-23T02:24:54.944Z,83.43
2022-12-23T02:27:39.125Z,83.67
2022-12-23T02:30:25.604Z,84.39
2022-12-23T02:33:15.816Z,85.61
2022-12-23T02:36:20.752Z,85.05
2022-12-23T02:39:25.149Z,85.15
2022-12-23T02:42:07.043Z,85.13
2022-12-23T02:45:07.444Z,85.67
2022-12-23T02:47:54.898Z,84.71
2022-12-23T02:50:38.204Z,84.23
2022-12-23T02:53:30.508Z,83.97
2022-12-23T02:56:06.995Z,84.18
2022-12-23T02:58:50.863Z,84.66
2022-12-23T03:01:27.377Z,84.52
2022-12-23T03:03:59.935Z,84.55
2022-12-23T03:06:44.374Z,84.53
2022-12-23T03:09:30.917Z,83.21
2022-12-23T03:12:20.880Z,83.60
2022-12-23T03:15:16.824Z,83.81
2022-12-23T03:18:04.808Z,83.52
2022-12-23T03:20:54.474Z,83.54
2022-12-23T03:23:32.352Z,83.78
2022-12-23T03:26:21.951Z,83.46
2022-12-23T03:29:12.247Z,84.50
2022-12-23T03:31:47.435Z,84.16
2022-12-23T03:34:26.571Z,83.86
2022-12-23T03:37:04.415Z,84.54
2022-12-23T03:39:49.385Z,84.42
2022-12-23T03:42:37.209Z,83.81
2022-12-23T03:45:38.200Z,84.24
2022-12-23T03:48:24.271Z,83.96
2022-12-23T03:51:04.114Z,83.91
2022-12-23T03:53:43.367Z,83.04
2022-12-23T03:56:24.267Z,83.59
2022-12-23T03:59:02.506Z,85.10
2022-12-23T04:01:49.582Z,86.07
2022-12-23T04:04:29.377Z,83.85
2022-12-23T04:07:14.741Z,82.09
2022-12-23T04:09:48.089Z,81.76
2022-12-23T04:12:24.090Z,82.55
2022-12-23T04:14:56.129Z,82.50
2022-12-23T04:17:29.193Z,83.57
2022-12-23T04:20:01.205Z,83.36
2022-12-23T04:22:32.787Z,82.48
2022-12-23T04:25:04.895Z,82.83
2022-12-23T04:27:36.672Z,80.39
2022-12-23T04:30:11.291Z,80.81
2022-12-23T04:32:43.175Z,82.88
2022-12-23T04:35:15.084Z,82.98
2022-12-23T04:37:47.010Z,82.45
2022-12-23T04:40:19.173Z,81.99
2022-12-23T04:42:50.982Z,83.90
2022-12-23T04:45:22.772Z,84.33
2022-12-23T04:47:55.220Z,84.15
2022-12-23T04:50:27.101Z,83.07
2022-12-23T04:52:59.152Z,83.75
2022-12-23T04:55:31.103Z,84.20
2022-12-23T04:58:02.973Z,83.52
2022-12-23T05:00:39.447Z,83.19
2022-12-23T05:03:12.189Z,84.58
2022-12-23T05:05:44.405Z,84.02
2022-12-23T05:08:16.524Z,83.84
2022-12-23T05:10:48.347Z,83.11
2022-12-23T05:13:20.386Z,84.08
2022-12-23T05:15:54.570Z,83.30
2022-12-23T05:18:26.309Z,81.73
2022-12-23T05:20:58.149Z,83.06
2022-12-23T05:23:29.852Z,83.36
2022-12-23T05:26:01.755Z,84.78
2022-12-23T05:28:33.715Z,84.30
2022-12-23T05:31:07.783Z,86.00
2022-12-23T05:33:39.852Z,84.64
2022-12-23T05:36:12.804Z,84.84
2022-12-23T05:38:44.539Z,85.83
2022-12-23T05:41:16.996Z,86.69
2022-12-23T05:43:48.668Z,87.20
2022-12-23T05:46:26.246Z,83.49
2022-12-23T05:48:58.524Z,82.01
2022-12-23T05:51:30.108Z,80.96
2022-12-23T05:54:01.737Z,85.54
2022-12-23T05:56:33.321Z,86.54
2022-12-23T05:59:04.967Z,85.72
2022-12-23T06:01:36.625Z,86.69
2022-12-23T06:04:08.312Z,86.36
2022-12-23T06:06:40.081Z,83.71
2022-12-23T06:09:11.862Z,83.48
2022-12-23T06:11:43.461Z,83.31
2022-12-23T06:14:15.136Z,82.08
2022-12-23T06:16:46.714Z,83.14
2022-12-23T06:19:18.388Z,79.77
2022-12-23T06:21:49.997Z,79.83
2022-12-23T06:24:21.579Z,81.29
2022-12-23T06:26:56.972Z,84.67
2022-12-23T06:29:29.277Z,82.74
2022-12-23T06:32:00.990Z,81.87
2022-12-23T06:34:33.268Z,83.34
2022-12-23T06:37:04.833Z,83.32
2022-12-23T06:39:36.488Z,85.85
2022-12-23T06:42:08.200Z,84.62
2022-12-23T06:44:39.751Z,80.92
2022-12-23T06:47:11.417Z,81.70
2022-12-23T06:49:42.993Z,82.19
2022-12-23T06:52:14.677Z,82.12
2022-12-23T06:54:46.284Z,80.72
2022-12-23T06:57:17.867Z,80.37
2022-12-23T06:59:49.557Z,82.38
2022-12-23T07:02:21.357Z,80.12
2022-12-23T07:04:53.051Z,82.98
2022-12-23T07:07:25.149Z,84.34
2022-12-23T07:09:59.630Z,85.51
2022-12-23T07:12:31.280Z,85.81
2022-12-23T07:15:02.950Z,86.81
2022-12-23T07:17:34.505Z,87.03
2022-12-23T07:20:06.691Z,87.73
2022-12-23T07:22:38.321Z,86.70
2022-12-23T07:25:10.060Z,86.36
2022-12-23T07:27:42.829Z,87.78
2022-12-23T07:30:14.492Z,84.57
2022-12-23T07:32:48.409Z,86.85
2022-12-23T07:35:20.158Z,87.74
2022-12-23T07:37:55.342Z,86.68
2022-12-23T07:40:26.986Z,85.91
2022-12-23T07:42:59.097Z,86.19
2022-12-23T07:45:30.858Z,86.57
2022-12-23T07:48:02.532Z,86.78
2022-12-23T07:50:34.840Z,86.89
2022-12-23T07:53:06.501Z,83.28
2022-12-23T07:55:38.203Z,80.75
2022-12-23T07:58:09.801Z,82.74
2022-12-23T08:00:41.348Z,82.80
2022-12-23T08:03:13.103Z,84.16
2022-12-23T08:05:44.792Z,86.45
2022-12-23T08:08:16.531Z,85.99
2022-12-23T08:10:48.718Z,87.68
2022-12-23T08:13:20.330Z,87.39
2022-12-23T08:15:57.299Z,86.44
2022-12-23T08:18:34.451Z,86.62
2022-12-23T08:21:10.887Z,84.48
2022-12-23T08:23:43.554Z,81.74
2022-12-23T08:26:20.947Z,82.75
2022-12-23T08:28:52.659Z,83.91
2022-12-23T08:31:30.231Z,83.56
2022-12-23T08:34:02.482Z,83.21
2022-12-23T08:36:35.827Z,82.53
2022-12-23T08:39:10.894Z,80.37
2022-12-23T08:41:46.184Z,80.58
2022-12-23T08:44:18.057Z,80.31
2022-12-23T08:46:49.707Z,81.17
2022-12-23T08:49:21.911Z,84.28
2022-12-23T08:51:53.696Z,85.43
2022-12-23T08:54:25.350Z,86.11
2022-12-23T08:56:56.914Z,86.55
2022-12-23T08:59:28.738Z,86.85
2022-12-23T09:02:00.508Z,86.92
2022-12-23T09:04:32.587Z,85.17
2022-12-23T09:07:04.221Z,85.48
2022-12-23T09:09:37.738Z,85.56
2022-12-23T09:12:09.423Z,85.19
2022-12-23T09:14:43.819Z,86.89
2022-12-23T09:17:15.479Z,85.22
2022-12-23T09:19:52.401Z,84.32
2022-12-23T09:22:24.824Z,82.10
2022-12-23T09:25:01.239Z,81.09
2022-12-23T09:27:36.408Z,81.88
2022-12-23T09:30:08.791Z,82.05
2022-12-23T09:32:40.378Z,80.41
2022-12-23T09:35:12.074Z,82.17
2022-12-23T09:37:44.248Z,82.98
2022-12-23T09:40:21.002Z,83.68
2022-12-23T09:43:07.941Z,82.18
2022-12-23T09:45:56.747Z,82.21
2022-12-23T09:48:37.170Z,80.80
2022-12-23T09:51:12.634Z,81.46
2022-12-23T09:53:55.631Z,78.44
2022-12-23T09:56:58.422Z,80.44
2022-12-23T10:00:03.757Z,80.63
2022-12-23T10:03:01.922Z,83.63
2022-12-23T10:05:48.288Z,84.98
2022-12-23T10:08:38.217Z,84.74
2022-12-23T10:11:39.772Z,85.52
2022-12-23T10:14:34.172Z,82.09
2022-12-23T10:17:16.099Z,80.72
2022-12-23T10:19:50.358Z,82.11
2022-12-23T10:22:25.283Z,81.80
2022-12-23T10:25:00.406Z,82.19
2022-12-23T10:27:39.621Z,78.55
2022-12-23T10:33:24.372Z,80.77
2022-12-23T10:36:11.950Z,83.27
2022-12-23T10:39:05.629Z,84.08
2022-12-23T10:42:12.856Z,84.67
2022-12-23T10:45:06.758Z,84.85
2022-12-23T10:47:59.526Z,84.45
2022-12-23T10:50:59.574Z,84.76
2022-12-23T10:53:56.374Z,84.22
2022-12-23T10:56:31.564Z,83.37
2022-12-23T10:59:03.695Z,84.11
2022-12-23T11:01:35.668Z,83.08
2022-12-23T11:04:15.313Z,84.12
2022-12-23T11:07:10.756Z,83.46
2022-12-23T11:09:54.219Z,83.71
2022-12-23T11:12:42.252Z,83.21
2022-12-23T11:15:38.983Z,84.93
2022-12-23T11:18:13.674Z,86.01
2022-12-23T11:21:01.114Z,85.89
2022-12-23T11:23:35.940Z,85.72
2022-12-23T11:26:13.341Z,85.83
2022-12-23T11:29:02.790Z,86.48
2022-12-23T11:31:36.788Z,85.61
2022-12-23T11:34:20.641Z,85.45
2022-12-23T11:37:03.332Z,86.34
2022-12-23T11:39:37.917Z,85.59
2022-12-23T11:42:18.440Z,85.92
2022-12-23T11:44:54.220Z,85.68
2022-12-23T11:47:41.526Z,85.35
2022-12-23T11:50:36.451Z,85.61
2022-12-23T11:53:22.828Z,85.94
2022-12-23T11:56:12.373Z,84.74
2022-12-23T11:58:50.656Z,84.46
2022-12-23T12:01:25.211Z,84.04
2022-12-23T12:04:02.996Z,84.93
2022-12-23T12:06:36.374Z,83.37
2022-12-23T12:09:13.703Z,83.63
2022-12-23T12:11:51.816Z,85.14
2022-12-23T12:14:32.470Z,83.68
2022-12-23T12:17:26.544Z,84.46
2022-12-23T12:20:22.960Z,85.41
2022-12-23T12:23:01.221Z,84.83
2022-12-23T12:25:53.090Z,85.44
2022-12-23T12:28:32.665Z,84.90
2022-12-23T12:31:04.368Z,85.57
2022-12-23T12:34:02.721Z,85.44
2022-12-23T12:36:55.093Z,84.39
2022-12-23T12:39:34.743Z,84.67
2022-12-23T12:42:29.070Z,84.46
2022-12-23T12:45:24.031Z,83.72
2022-12-23T12:48:29.385Z,83.50
2022-12-23T12:51:37.905Z,82.64
2022-12-23T12:54:21.820Z,82.65
2022-12-23T12:56:56.601Z,82.89
2022-12-23T12:59:33.719Z,83.76
2022-12-23T13:02:36.774Z,84.67
2022-12-23T13:05:53.390Z,83.06
2022-12-23T13:09:02.640Z,83.18
2022-12-23T13:11:36.853Z,83.11
2022-12-23T13:14:33.628Z,83.05
2022-12-23T13:17:14.905Z,81.47
2022-12-23T13:19:55.706Z,82.39
2022-12-23T13:22:34.602Z,82.61
2022-12-23T13:25:15.192Z,82.36
2022-12-23T13:27:55.825Z,82.37
2022-12-23T13:30:38.411Z,82.92
2022-12-23T13:34:05.772Z,83.06
2022-12-23T13:36:55.285Z,83.26
2022-12-23T13:39:45.392Z,83.38
2022-12-23T13:42:42.848Z,83.15
2022-12-23T13:45:17.981Z,82.45
2022-12-23T13:48:08.277Z,81.96
2022-12-23T13:51:03.598Z,83.15
2022-12-23T13:54:04.168Z,82.22
2022-12-23T13:56:58.441Z,82.55
2022-12-23T13:59:42.051Z,81.55
2022-12-23T14:03:03.859Z,82.75
2022-12-23T14:05:38.360Z,83.16
2022-12-23T14:08:19.198Z,82.46
2022-12-23T14:10:56.779Z,83.16
2022-12-23T14:13:39.829Z,83.72
2022-12-23T14:16:37.006Z,83.30
2022-12-23T14:19:36.793Z,83.28
2022-12-23T14:22:36.045Z,83.34
2022-12-23T14:25:36.342Z,83.59
2022-12-23T14:28:27.304Z,82.25
2022-12-23T14:30:59.389Z,82.39
2022-12-23T14:33:37.326Z,81.24
2022-12-23T14:36:15.223Z,81.63
2022-12-23T14:39:11.548Z,81.61
2022-12-23T14:41:53.805Z,81.37
2022-12-23T14:44:37.635Z,80.79
2022-12-23T14:47:33.620Z,82.38
2022-12-23T14:50:55.673Z,83.57
2022-12-23T14:53:32.613Z,83.55
2022-12-23T14:56:16.046Z,84.13
2022-12-23T14:58:59.436Z,82.43
2022-12-23T15:01:46.261Z,83.52
2022-12-23T15:04:37.487Z,84.14
2022-12-23T15:07:24.443Z,84.48
2022-12-23T15:10:03.078Z,82.19
2022-12-23T15:12:42.135Z,85.04
2022-12-23T15:15:19.528Z,84.10
2022-12-23T15:18:12.118Z,83.26
2022-12-23T15:20:43.962Z,84.27
2022-12-23T15:23:17.185Z,85.13
2022-12-23T15:25:49.967Z,85.75
2022-12-23T15:28:42.319Z,84.13
2022-12-23T15:31:31.466Z,84.69
2022-12-23T15:34:16.494Z,82.87
2022-12-23T15:36:50.413Z,83.39
2022-12-23T15:39:37.373Z,83.09
2022-12-23T15:42:26.587Z,83.40
2022-12-23T15:44:58.775Z,82.85
2022-12-23T15:47:37.996Z,83.87
2022-12-23T15:50:14.274Z,84.11
2022-12-23T15:52:50.402Z,84.38
2022-12-23T15:55:31.255Z,84.55
2022-12-23T15:58:04.908Z,85.16
2022-12-23T16:00:50.241Z,85.06
2022-12-23T16:03:37.055Z,85.49
2022-12-23T16:06:26.657Z,84.48
2022-12-23T16:09:16.486Z,84.14
2022-12-23T16:12:22.864Z,84.65
2022-12-23T16:14:57.727Z,84.07
2022-12-23T16:17:35.662Z,84.50
2022-12-23T16:20:26.494Z,85.57
2022-12-23T16:23:03.078Z,85.45
2022-12-23T16:25:35.222Z,84.52
2022-12-23T16:28:14.859Z,85.64
2022-12-23T16:30:47.725Z,85.34
2022-12-23T16:33:23.027Z,85.89
2022-12-23T16:35:55.003Z,85.08
2022-12-23T16:38:27.092Z,85.35
2022-12-23T16:40:58.679Z,84.67
2022-12-23T16:43:30.948Z,84.22
2022-12-23T16:46:03.191Z,84.79
2022-12-23T16:48:48.787Z,85.22
2022-12-23T16:51:21.958Z,85.69
2022-12-23T16:53:56.287Z,85.13
2022-12-23T16:56:36.258Z,85.90
2022-12-23T16:59:09.606Z,85.17
2022-12-23T17:01:45.874Z,85.40
2022-12-23T17:04:17.608Z,85.42
2022-12-23T17:06:49.276Z,85.48
2022-12-23T17:09:20.837Z,85.73
2022-12-23T17:11:53.534Z,84.54
2022-12-23T17:14:25.795Z,84.62
2022-12-23T17:16:58.497Z,85.00
2022-12-23T17:19:30.139Z,85.04
2022-12-23T17:22:03.432Z,84.93
2022-12-23T17:24:35.213Z,85.30
2022-12-23T17:27:15.636Z,85.76
2022-12-23T17:29:47.217Z,84.56
2022-12-23T17:32:19.359Z,84.07
2022-12-23T17:34:51.015Z,84.39
2022-12-23T17:37:22.756Z,84.91
2022-12-23T17:39:55.563Z,85.61
2022-12-23T17:42:27.245Z,85.65
2022-12-23T17:44:58.839Z,85.59
2022-12-23T17:47:30.496Z,86.08
2022-12-23T17:50:02.113Z,85.80
2022-12-23T17:52:33.660Z,85.96
2022-12-23T17:55:06.700Z,85.58
2022-12-23T17:57:38.361Z,85.12
2022-12-23T18:00:10.515Z,84.51
2022-12-23T18:02:46.109Z,82.93
2022-12-23T18:05:20.232Z,82.25
2022-12-23T18:07:54.042Z,83.82
2022-12-23T18:10:31.795Z,84.08
2022-12-23T18:13:07.905Z,85.37
2022-12-23T18:15:43.082Z,85.37
2022-12-23T18:18:30.165Z,85.75
2022-12-23T18:21:07.700Z,86.06
2022-12-23T18:23:39.342Z,85.08
2022-12-23T18:26:14.581Z,86.06
2022-12-23T18:28:46.375Z,85.04
2022-12-23T18:31:24.117Z,85.17
2022-12-23T18:33:56.220Z,84.17
2022-12-23T18:36:30.942Z,84.07
2022-12-23T18:39:02.562Z,84.65
2022-12-23T18:41:34.181Z,84.71
2022-12-23T18:44:05.775Z,85.00
2022-12-23T18:46:37.345Z,84.01
2022-12-23T18:49:08.899Z,85.04
2022-12-23T18:51:40.462Z,84.98
2022-12-23T18:54:16.021Z,84.12
2022-12-23T18:56:47.673Z,83.92
2022-12-23T18:59:29.159Z,85.31
2022-12-23T19:02:01.370Z,85.11
2022-12-23T19:04:32.949Z,85.56
2022-12-23T19:07:04.536Z,86.34
2022-12-23T19:09:36.144Z,85.96
2022-12-23T19:12:08.757Z,85.85
2022-12-23T19:14:40.378Z,85.13
2022-12-23T19:17:11.946Z,85.47
2022-12-23T19:19:43.536Z,85.68
2022-12-23T19:22:15.225Z,85.88
2022-12-23T19:25:03.800Z,85.47
2022-12-23T19:27:39.668Z,85.09
2022-12-23T19:30:14.405Z,84.34
2022-12-23T19:32:46.630Z,83.91
2022-12-23T19:35:18.339Z,84.11
2022-12-23T19:37:50.481Z,84.93
2022-12-23T19:40:22.275Z,84.20
2022-12-23T19:42:53.907Z,84.28
2022-12-23T19:45:25.573Z,83.63
2022-12-23T19:47:57.306Z,83.06
2022-12-23T19:50:29.001Z,81.67
2022-12-23T19:53:00.698Z,81.59
2022-12-23T19:55:32.321Z,81.94
2022-12-23T19:58:03.973Z,82.62
2022-12-23T20:00:35.619Z,83.50
2022-12-23T20:03:07.247Z,83.41
2022-12-23T20:05:38.897Z,84.49
2022-12-23T20:08:10.561Z,85.15
2022-12-23T20:10:43.954Z,84.58
2022-12-23T20:13:15.565Z,84.20
2022-12-23T20:15:47.177Z,85.18
2022-12-23T20:18:18.767Z,83.75
2022-12-23T20:20:50.572Z,83.88
2022-12-23T20:23:22.147Z,83.01
2022-12-23T20:25:53.996Z,82.02
2022-12-23T20:28:26.190Z,81.08
2022-12-23T20:31:04.673Z,81.99
2022-12-23T20:33:38.980Z,82.65
2022-12-23T20:36:13.057Z,82.25
2022-12-23T20:39:00.928Z,82.12
2022-12-23T20:41:33.553Z,83.17
2022-12-23T20:46:57.053Z,82.69
2022-12-23T20:49:28.715Z,82.34
2022-12-23T20:52:00.382Z,82.56
2022-12-23T20:54:33.595Z,81.70
2022-12-23T20:57:05.579Z,82.04
2022-12-23T20:59:37.453Z,82.53
2022-12-23T21:02:13.290Z,82.40
2022-12-23T21:04:45.423Z,82.61
2022-12-23T21:07:17.114Z,81.65
2022-12-23T21:09:48.840Z,80.82
2022-12-23T21:12:20.504Z,79.61
2022-12-23T21:14:52.140Z,79.53
2022-12-23T21:17:23.733Z,80.04
2022-12-23T21:19:55.449Z,79.79
2022-12-23T21:22:27.115Z,79.89
2022-12-23T21:24:58.756Z,80.92
2022-12-23T21:27:30.283Z,81.39
2022-12-23T21:30:02.110Z,81.35
2022-12-23T21:32:33.677Z,80.70
2022-12-23T21:35:05.803Z,80.76
2022-12-23T21:37:37.600Z,79.94
2022-12-23T21:40:18.240Z,79.83
2022-12-23T21:42:50.096Z,79.95
2022-12-23T21:45:21.689Z,81.46
2022-12-23T21:47:53.300Z,82.17
2022-12-23T21:50:24.901Z,81.46
2022-12-23T21:52:56.690Z,81.49
2022-12-23T21:55:28.254Z,82.61
2022-12-23T21:57:59.913Z,83.26
2022-12-23T22:00:31.545Z,82.29
2022-12-23T22:03:03.139Z,82.74
2022-12-23T22:05:34.689Z,82.06
2022-12-23T22:08:06.242Z,82.49
2022-12-23T22:10:38.132Z,83.30
2022-12-23T22:13:09.685Z,83.67
2022-12-23T22:15:42.865Z,83.28
2022-12-23T22:18:14.421Z,82.67
2022-12-23T22:20:46.548Z,82.81
2022-12-23T22:23:18.246Z,82.90
2022-12-23T22:25:56.239Z,82.44
2022-12-23T22:28:31.390Z,82.30
2022-12-23T22:31:44.672Z,81.55
2022-12-23T22:34:21.377Z,81.38
2022-12-23T22:36:53.069Z,82.13
2022-12-23T22:39:24.706Z,82.40
2022-12-23T22:41:56.296Z,82.88
2022-12-23T22:44:27.812Z,83.12
2022-12-23T22:46:59.452Z,83.11
2022-12-23T22:49:31.150Z,82.67
2022-12-23T22:52:02.793Z,82.10
2022-12-23T22:54:34.408Z,81.94
2022-12-23T22:57:05.989Z,81.30
2022-12-23T22:59:38.026Z,80.93
2022-12-23T23:02:09.633Z,81.24
2022-12-23T23:04:41.166Z,81.31
2022-12-23T23:07:12.809Z,81.77
2022-12-23T23:09:44.535Z,81.60
2022-12-23T23:12:16.135Z,82.05
2022-12-23T23:14:47.724Z,82.92
2022-12-23T23:17:22.836Z,83.56
2022-12-23T23:19:54.682Z,83.07
2022-12-23T23:22:26.448Z,83.20
2022-12-23T23:24:58.084Z,83.52
2022-12-23T23:27:29.662Z,82.83
2022-12-23T23:30:01.241Z,83.30
2022-12-23T23:32:32.853Z,83.73
2022-12-23T23:35:10.490Z,84.18
2022-12-23T23:37:42.591Z,83.81
2022-12-23T23:40:14.294Z,83.50
2022-12-23T23:42:45.844Z,83.55
2022-12-23T23:45:17.368Z,83.56
2022-12-23T23:47:48.956Z,84.18
2022-12-23T23:50:21.096Z,83.66
2022-12-23T23:52:52.727Z,84.26
2022-12-23T23:55:24.370Z,84.43
2022-12-23T23:57:56.219Z,83.34
